sensor_id;sensor_type;location;lat;lon;timestamp;P1;durP1;ratioP1;P2;durP2;ratioP2
45198;SDS011;30941;46.422;18.772;2023-01-23T00:00:30;25.85;;;16.30;;
45198;SDS011;30941;46.422;18.772;2023-01-23T00:02:56;28.80;;;16.33;;
45198;SDS011;30941;46.422;18.772;2023-01-23T00:05:21;25.05;;;15.05;;
45198;SDS011;30941;46.422;18.772;2023-01-23T00:07:47;30.02;;;16.85;;
45198;SDS011;30941;46.422;18.772;2023-01-23T00:10:13;28.00;;;16.88;;
45198;SDS011;30941;46.422;18.772;2023-01-23T00:12:41;30.40;;;14.80;;
45198;SDS011;30941;46.422;18.772;2023-01-23T00:15:08;27.27;;;16.67;;
45198;SDS011;30941;46.422;18.772;2023-01-23T00:17:34;27.75;;;16.05;;
45198;SDS011;30941;46.422;18.772;2023-01-23T00:20:00;32.58;;;17.35;;
45198;SDS011;30941;46.422;18.772;2023-01-23T00:22:25;31.42;;;16.58;;
45198;SDS011;30941;46.422;18.772;2023-01-23T00:24:51;28.10;;;17.35;;
45198;SDS011;30941;46.422;18.772;2023-01-23T00:27:16;29.15;;;16.55;;
45198;SDS011;30941;46.422;18.772;2023-01-23T00:29:42;27.23;;;16.23;;
45198;SDS011;30941;46.422;18.772;2023-01-23T00:32:09;27.10;;;16.40;;
45198;SDS011;30941;46.422;18.772;2023-01-23T00:34:34;30.02;;;17.92;;
45198;SDS011;30941;46.422;18.772;2023-01-23T00:37:00;31.15;;;16.52;;
45198;SDS011;30941;46.422;18.772;2023-01-23T00:39:25;30.00;;;17.42;;
45198;SDS011;30941;46.422;18.772;2023-01-23T00:41:51;33.63;;;17.90;;
45198;SDS011;30941;46.422;18.772;2023-01-23T00:44:16;30.27;;;17.60;;
45198;SDS011;30941;46.422;18.772;2023-01-23T00:46:42;31.77;;;18.27;;
45198;SDS011;30941;46.422;18.772;2023-01-23T00:49:08;30.33;;;18.75;;
45198;SDS011;30941;46.422;18.772;2023-01-23T00:51:33;31.45;;;17.13;;
45198;SDS011;30941;46.422;18.772;2023-01-23T00:53:59;33.45;;;18.90;;
45198;SDS011;30941;46.422;18.772;2023-01-23T00:56:25;31.88;;;18.35;;
45198;SDS011;30941;46.422;18.772;2023-01-23T00:58:51;35.85;;;19.00;;
45198;SDS011;30941;46.422;18.772;2023-01-23T01:01:16;38.25;;;19.60;;
45198;SDS011;30941;46.422;18.772;2023-01-23T01:03:42;33.65;;;20.10;;
45198;SDS011;30941;46.422;18.772;2023-01-23T01:06:08;30.05;;;19.10;;
45198;SDS011;30941;46.422;18.772;2023-01-23T01:08:34;33.83;;;19.00;;
45198;SDS011;30941;46.422;18.772;2023-01-23T01:10:59;33.10;;;18.38;;
45198;SDS011;30941;46.422;18.772;2023-01-23T01:13:25;30.92;;;19.38;;
45198;SDS011;30941;46.422;18.772;2023-01-23T01:15:51;32.25;;;19.73;;
45198;SDS011;30941;46.422;18.772;2023-01-23T01:18:18;30.00;;;18.23;;
45198;SDS011;30941;46.422;18.772;2023-01-23T01:20:44;30.02;;;17.13;;
45198;SDS011;30941;46.422;18.772;2023-01-23T01:23:09;32.08;;;18.80;;
45198;SDS011;30941;46.422;18.772;2023-01-23T01:25:35;27.65;;;17.42;;
45198;SDS011;30941;46.422;18.772;2023-01-23T01:28:01;31.33;;;18.08;;
45198;SDS011;30941;46.422;18.772;2023-01-23T01:30:27;31.90;;;17.83;;
45198;SDS011;30941;46.422;18.772;2023-01-23T01:32:53;30.02;;;18.13;;
45198;SDS011;30941;46.422;18.772;2023-01-23T01:35:19;33.63;;;19.35;;
45198;SDS011;30941;46.422;18.772;2023-01-23T01:37:45;32.47;;;18.80;;
45198;SDS011;30941;46.422;18.772;2023-01-23T01:40:12;31.23;;;18.55;;
45198;SDS011;30941;46.422;18.772;2023-01-23T01:42:46;31.85;;;18.80;;
45198;SDS011;30941;46.422;18.772;2023-01-23T01:48:16;32.85;;;19.10;;
45198;SDS011;30941;46.422;18.772;2023-01-23T01:50:42;29.65;;;17.17;;
45198;SDS011;30941;46.422;18.772;2023-01-23T01:53:08;29.35;;;17.35;;
45198;SDS011;30941;46.422;18.772;2023-01-23T01:55:34;29.05;;;17.60;;
45198;SDS011;30941;46.422;18.772;2023-01-23T01:57:59;32.30;;;18.52;;
45198;SDS011;30941;46.422;18.772;2023-01-23T02:00:25;32.50;;;18.90;;
45198;SDS011;30941;46.422;18.772;2023-01-23T02:02:51;33.67;;;18.88;;
45198;SDS011;30941;46.422;18.772;2023-01-23T02:05:19;29.05;;;17.83;;
45198;SDS011;30941;46.422;18.772;2023-01-23T02:10:18;29.58;;;17.08;;
45198;SDS011;30941;46.422;18.772;2023-01-23T02:12:47;32.75;;;18.08;;
45198;SDS011;30941;46.422;18.772;2023-01-23T02:15:14;30.02;;;18.17;;
45198;SDS011;30941;46.422;18.772;2023-01-23T02:17:41;33.33;;;18.10;;
45198;SDS011;30941;46.422;18.772;2023-01-23T02:20:24;30.52;;;17.05;;
45198;SDS011;30941;46.422;18.772;2023-01-23T02:28:09;29.83;;;18.00;;
45198;SDS011;30941;46.422;18.772;2023-01-23T02:30:36;30.25;;;18.30;;
45198;SDS011;30941;46.422;18.772;2023-01-23T02:33:10;32.88;;;18.13;;
45198;SDS011;30941;46.422;18.772;2023-01-23T02:35:59;29.27;;;17.25;;
45198;SDS011;30941;46.422;18.772;2023-01-23T02:38:29;32.05;;;17.95;;
45198;SDS011;30941;46.422;18.772;2023-01-23T02:41:00;35.88;;;19.80;;
45198;SDS011;30941;46.422;18.772;2023-01-23T02:43:28;41.42;;;22.65;;
45198;SDS011;30941;46.422;18.772;2023-01-23T02:46:06;41.92;;;21.52;;
45198;SDS011;30941;46.422;18.772;2023-01-23T02:48:32;31.67;;;18.83;;
45198;SDS011;30941;46.422;18.772;2023-01-23T02:50:58;31.65;;;18.55;;
45198;SDS011;30941;46.422;18.772;2023-01-23T02:53:23;29.58;;;17.75;;
45198;SDS011;30941;46.422;18.772;2023-01-23T02:55:49;33.38;;;19.33;;
45198;SDS011;30941;46.422;18.772;2023-01-23T02:58:15;32.60;;;19.02;;
45198;SDS011;30941;46.422;18.772;2023-01-23T03:00:59;27.60;;;16.63;;
45198;SDS011;30941;46.422;18.772;2023-01-23T03:03:25;30.80;;;18.35;;
45198;SDS011;30941;46.422;18.772;2023-01-23T03:05:50;31.77;;;17.42;;
45198;SDS011;30941;46.422;18.772;2023-01-23T03:08:16;32.63;;;18.77;;
45198;SDS011;30941;46.422;18.772;2023-01-23T03:10:41;31.88;;;17.92;;
45198;SDS011;30941;46.422;18.772;2023-01-23T03:13:07;31.08;;;17.35;;
45198;SDS011;30941;46.422;18.772;2023-01-23T03:15:34;35.65;;;19.73;;
45198;SDS011;30941;46.422;18.772;2023-01-23T03:18:02;31.58;;;19.00;;
45198;SDS011;30941;46.422;18.772;2023-01-23T03:20:28;35.25;;;17.45;;
45198;SDS011;30941;46.422;18.772;2023-01-23T03:22:53;31.02;;;17.83;;
45198;SDS011;30941;46.422;18.772;2023-01-23T03:25:19;33.13;;;19.25;;
45198;SDS011;30941;46.422;18.772;2023-01-23T03:27:44;32.75;;;17.50;;
45198;SDS011;30941;46.422;18.772;2023-01-23T03:30:13;29.65;;;16.80;;
45198;SDS011;30941;46.422;18.772;2023-01-23T03:32:45;31.75;;;17.00;;
45198;SDS011;30941;46.422;18.772;2023-01-23T03:35:11;30.17;;;17.95;;
45198;SDS011;30941;46.422;18.772;2023-01-23T03:37:41;31.50;;;17.48;;
45198;SDS011;30941;46.422;18.772;2023-01-23T03:40:17;28.27;;;16.50;;
45198;SDS011;30941;46.422;18.772;2023-01-23T03:43:02;32.33;;;18.75;;
45198;SDS011;30941;46.422;18.772;2023-01-23T03:45:27;31.10;;;17.67;;
45198;SDS011;30941;46.422;18.772;2023-01-23T03:47:53;32.50;;;18.50;;
45198;SDS011;30941;46.422;18.772;2023-01-23T03:50:18;36.65;;;19.10;;
45198;SDS011;30941;46.422;18.772;2023-01-23T03:52:44;31.17;;;17.23;;
45198;SDS011;30941;46.422;18.772;2023-01-23T03:55:09;30.98;;;17.52;;
45198;SDS011;30941;46.422;18.772;2023-01-23T03:57:35;30.80;;;16.95;;
45198;SDS011;30941;46.422;18.772;2023-01-23T04:00:00;33.83;;;18.33;;
45198;SDS011;30941;46.422;18.772;2023-01-23T04:02:25;34.10;;;18.77;;
45198;SDS011;30941;46.422;18.772;2023-01-23T04:04:51;31.17;;;18.13;;
45198;SDS011;30941;46.422;18.772;2023-01-23T04:07:17;31.70;;;17.17;;
45198;SDS011;30941;46.422;18.772;2023-01-23T04:09:42;29.45;;;16.77;;
45198;SDS011;30941;46.422;18.772;2023-01-23T04:12:07;32.05;;;17.85;;
45198;SDS011;30941;46.422;18.772;2023-01-23T04:14:34;30.10;;;16.98;;
45198;SDS011;30941;46.422;18.772;2023-01-23T04:17:02;29.13;;;17.65;;
45198;SDS011;30941;46.422;18.772;2023-01-23T04:19:28;28.30;;;16.02;;
45198;SDS011;30941;46.422;18.772;2023-01-23T04:21:54;28.30;;;15.73;;
45198;SDS011;30941;46.422;18.772;2023-01-23T04:24:19;31.25;;;17.88;;
45198;SDS011;30941;46.422;18.772;2023-01-23T04:26:44;30.15;;;16.20;;
45198;SDS011;30941;46.422;18.772;2023-01-23T04:29:10;28.92;;;16.65;;
45198;SDS011;30941;46.422;18.772;2023-01-23T04:31:36;28.08;;;16.40;;
45198;SDS011;30941;46.422;18.772;2023-01-23T04:34:01;35.22;;;18.20;;
45198;SDS011;30941;46.422;18.772;2023-01-23T04:36:27;40.38;;;19.80;;
45198;SDS011;30941;46.422;18.772;2023-01-23T04:38:53;38.30;;;20.13;;
45198;SDS011;30941;46.422;18.772;2023-01-23T04:41:19;33.67;;;17.77;;
45198;SDS011;30941;46.422;18.772;2023-01-23T04:43:46;29.42;;;17.00;;
45198;SDS011;30941;46.422;18.772;2023-01-23T04:46:11;31.15;;;17.33;;
45198;SDS011;30941;46.422;18.772;2023-01-23T04:48:36;31.67;;;17.10;;
45198;SDS011;30941;46.422;18.772;2023-01-23T04:51:02;29.15;;;16.55;;
45198;SDS011;30941;46.422;18.772;2023-01-23T04:53:28;29.52;;;15.73;;
45198;SDS011;30941;46.422;18.772;2023-01-23T04:55:53;25.45;;;15.23;;
45198;SDS011;30941;46.422;18.772;2023-01-23T04:58:18;27.80;;;15.93;;
45198;SDS011;30941;46.422;18.772;2023-01-23T05:00:44;28.17;;;15.95;;
45198;SDS011;30941;46.422;18.772;2023-01-23T05:03:10;29.95;;;16.20;;
45198;SDS011;30941;46.422;18.772;2023-01-23T05:05:35;30.73;;;17.52;;
45198;SDS011;30941;46.422;18.772;2023-01-23T05:08:01;29.77;;;17.42;;
45198;SDS011;30941;46.422;18.772;2023-01-23T05:10:26;29.73;;;17.60;;
45198;SDS011;30941;46.422;18.772;2023-01-23T05:12:52;29.23;;;17.02;;
45198;SDS011;30941;46.422;18.772;2023-01-23T05:15:17;27.92;;;16.35;;
45198;SDS011;30941;46.422;18.772;2023-01-23T05:17:45;27.63;;;16.55;;
45198;SDS011;30941;46.422;18.772;2023-01-23T05:20:11;31.02;;;16.73;;
45198;SDS011;30941;46.422;18.772;2023-01-23T05:22:36;31.20;;;16.75;;
45198;SDS011;30941;46.422;18.772;2023-01-23T05:25:02;26.15;;;15.77;;
45198;SDS011;30941;46.422;18.772;2023-01-23T05:27:27;31.25;;;17.17;;
45198;SDS011;30941;46.422;18.772;2023-01-23T05:29:52;32.78;;;17.38;;
45198;SDS011;30941;46.422;18.772;2023-01-23T05:32:18;30.17;;;17.35;;
45198;SDS011;30941;46.422;18.772;2023-01-23T05:34:43;29.45;;;16.00;;
45198;SDS011;30941;46.422;18.772;2023-01-23T05:37:09;30.63;;;17.50;;
45198;SDS011;30941;46.422;18.772;2023-01-23T05:39:34;30.58;;;17.85;;
45198;SDS011;30941;46.422;18.772;2023-01-23T05:42:00;29.80;;;16.85;;
45198;SDS011;30941;46.422;18.772;2023-01-23T05:44:25;30.20;;;16.70;;
45198;SDS011;30941;46.422;18.772;2023-01-23T05:46:52;31.17;;;16.95;;
45198;SDS011;30941;46.422;18.772;2023-01-23T05:49:18;31.45;;;17.85;;
45198;SDS011;30941;46.422;18.772;2023-01-23T05:51:43;31.75;;;17.50;;
45198;SDS011;30941;46.422;18.772;2023-01-23T05:54:09;31.60;;;17.17;;
45198;SDS011;30941;46.422;18.772;2023-01-23T05:56:34;34.72;;;18.58;;
45198;SDS011;30941;46.422;18.772;2023-01-23T05:59:00;40.55;;;19.63;;
45198;SDS011;30941;46.422;18.772;2023-01-23T06:01:25;34.85;;;17.98;;
45198;SDS011;30941;46.422;18.772;2023-01-23T06:03:50;29.10;;;15.90;;
45198;SDS011;30941;46.422;18.772;2023-01-23T06:06:16;28.45;;;16.95;;
45198;SDS011;30941;46.422;18.772;2023-01-23T06:08:41;29.48;;;17.80;;
45198;SDS011;30941;46.422;18.772;2023-01-23T06:11:07;50.15;;;30.77;;
45198;SDS011;30941;46.422;18.772;2023-01-23T06:13:32;80.07;;;52.05;;
45198;SDS011;30941;46.422;18.772;2023-01-23T06:15:57;67.05;;;43.83;;
45198;SDS011;30941;46.422;18.772;2023-01-23T06:18:23;50.72;;;32.03;;
45198;SDS011;30941;46.422;18.772;2023-01-23T06:20:49;38.45;;;24.00;;
45198;SDS011;30941;46.422;18.772;2023-01-23T06:23:14;41.15;;;22.50;;
45198;SDS011;30941;46.422;18.772;2023-01-23T06:25:40;35.20;;;20.48;;
45198;SDS011;30941;46.422;18.772;2023-01-23T06:28:05;38.78;;;20.98;;
45198;SDS011;30941;46.422;18.772;2023-01-23T06:30:31;33.53;;;18.40;;
45198;SDS011;30941;46.422;18.772;2023-01-23T06:32:56;29.38;;;16.30;;
45198;SDS011;30941;46.422;18.772;2023-01-23T06:35:22;27.90;;;17.17;;
45198;SDS011;30941;46.422;18.772;2023-01-23T06:37:47;31.40;;;16.90;;
45198;SDS011;30941;46.422;18.772;2023-01-23T06:40:13;35.15;;;18.80;;
45198;SDS011;30941;46.422;18.772;2023-01-23T06:42:39;36.55;;;19.00;;
45198;SDS011;30941;46.422;18.772;2023-01-23T06:45:05;37.05;;;18.88;;
45198;SDS011;30941;46.422;18.772;2023-01-23T06:47:31;34.70;;;19.05;;
45198;SDS011;30941;46.422;18.772;2023-01-23T06:49:57;39.55;;;19.45;;
45198;SDS011;30941;46.422;18.772;2023-01-23T06:52:22;41.67;;;20.85;;
45198;SDS011;30941;46.422;18.772;2023-01-23T06:54:48;38.25;;;22.05;;
45198;SDS011;30941;46.422;18.772;2023-01-23T06:57:13;38.47;;;19.50;;
45198;SDS011;30941;46.422;18.772;2023-01-23T06:59:39;32.95;;;19.05;;
45198;SDS011;30941;46.422;18.772;2023-01-23T07:02:05;33.63;;;18.00;;
45198;SDS011;30941;46.422;18.772;2023-01-23T07:04:31;38.40;;;20.55;;
45198;SDS011;30941;46.422;18.772;2023-01-23T07:06:56;35.85;;;20.98;;
45198;SDS011;30941;46.422;18.772;2023-01-23T07:09:22;30.95;;;17.88;;
45198;SDS011;30941;46.422;18.772;2023-01-23T07:11:47;31.20;;;16.58;;
45198;SDS011;30941;46.422;18.772;2023-01-23T07:14:12;30.77;;;17.08;;
45198;SDS011;30941;46.422;18.772;2023-01-23T07:16:38;27.42;;;17.08;;
45198;SDS011;30941;46.422;18.772;2023-01-23T07:19:03;29.15;;;16.35;;
45198;SDS011;30941;46.422;18.772;2023-01-23T07:21:29;27.85;;;15.80;;
45198;SDS011;30941;46.422;18.772;2023-01-23T07:23:55;30.00;;;16.38;;
45198;SDS011;30941;46.422;18.772;2023-01-23T07:26:20;31.27;;;17.52;;
45198;SDS011;30941;46.422;18.772;2023-01-23T07:28:46;28.60;;;16.90;;
45198;SDS011;30941;46.422;18.772;2023-01-23T07:31:11;30.58;;;18.23;;
45198;SDS011;30941;46.422;18.772;2023-01-23T07:33:37;36.92;;;18.90;;
45198;SDS011;30941;46.422;18.772;2023-01-23T07:36:05;32.25;;;17.38;;
45198;SDS011;30941;46.422;18.772;2023-01-23T07:38:31;35.28;;;18.58;;
45198;SDS011;30941;46.422;18.772;2023-01-23T07:40:57;37.22;;;21.33;;
45198;SDS011;30941;46.422;18.772;2023-01-23T07:43:23;40.80;;;20.23;;
45198;SDS011;30941;46.422;18.772;2023-01-23T07:45:49;38.08;;;20.15;;
45198;SDS011;30941;46.422;18.772;2023-01-23T07:48:14;34.92;;;19.25;;
45198;SDS011;30941;46.422;18.772;2023-01-23T07:50:40;31.95;;;18.05;;
45198;SDS011;30941;46.422;18.772;2023-01-23T07:53:05;34.63;;;19.52;;
45198;SDS011;30941;46.422;18.772;2023-01-23T07:55:31;35.03;;;19.65;;
45198;SDS011;30941;46.422;18.772;2023-01-23T07:57:56;36.45;;;18.92;;
45198;SDS011;30941;46.422;18.772;2023-01-23T08:00:22;27.98;;;16.85;;
45198;SDS011;30941;46.422;18.772;2023-01-23T08:02:47;28.65;;;16.30;;
45198;SDS011;30941;46.422;18.772;2023-01-23T08:05:13;36.67;;;20.35;;
45198;SDS011;30941;46.422;18.772;2023-01-23T08:07:38;35.53;;;22.27;;
45198;SDS011;30941;46.422;18.772;2023-01-23T08:10:04;35.78;;;21.98;;
45198;SDS011;30941;46.422;18.772;2023-01-23T08:12:30;35.03;;;20.80;;
45198;SDS011;30941;46.422;18.772;2023-01-23T08:14:56;31.25;;;17.10;;
45198;SDS011;30941;46.422;18.772;2023-01-23T08:17:21;32.05;;;18.27;;
45198;SDS011;30941;46.422;18.772;2023-01-23T08:19:47;30.48;;;16.63;;
45198;SDS011;30941;46.422;18.772;2023-01-23T08:22:13;27.58;;;14.45;;
45198;SDS011;30941;46.422;18.772;2023-01-23T08:24:38;25.00;;;15.25;;
45198;SDS011;30941;46.422;18.772;2023-01-23T08:27:04;25.50;;;16.17;;
45198;SDS011;30941;46.422;18.772;2023-01-23T08:29:30;26.98;;;16.50;;
45198;SDS011;30941;46.422;18.772;2023-01-23T08:31:55;26.10;;;15.27;;
45198;SDS011;30941;46.422;18.772;2023-01-23T08:34:21;28.05;;;16.58;;
45198;SDS011;30941;46.422;18.772;2023-01-23T08:36:48;26.13;;;15.13;;
45198;SDS011;30941;46.422;18.772;2023-01-23T08:39:15;25.25;;;15.60;;
45198;SDS011;30941;46.422;18.772;2023-01-23T08:41:41;29.38;;;16.05;;
45198;SDS011;30941;46.422;18.772;2023-01-23T08:44:06;31.23;;;17.17;;
45198;SDS011;30941;46.422;18.772;2023-01-23T08:46:32;34.08;;;21.83;;
45198;SDS011;30941;46.422;18.772;2023-01-23T08:48:57;35.38;;;23.60;;
45198;SDS011;30941;46.422;18.772;2023-01-23T08:51:22;37.53;;;22.02;;
45198;SDS011;30941;46.422;18.772;2023-01-23T08:53:52;30.75;;;20.00;;
45198;SDS011;30941;46.422;18.772;2023-01-23T08:56:18;29.10;;;18.58;;
45198;SDS011;30941;46.422;18.772;2023-01-23T08:58:45;30.38;;;19.15;;
45198;SDS011;30941;46.422;18.772;2023-01-23T09:01:14;30.35;;;16.90;;
45198;SDS011;30941;46.422;18.772;2023-01-23T09:03:46;26.20;;;16.25;;
45198;SDS011;30941;46.422;18.772;2023-01-23T09:06:13;24.77;;;15.48;;
45198;SDS011;30941;46.422;18.772;2023-01-23T09:08:39;24.48;;;15.00;;
45198;SDS011;30941;46.422;18.772;2023-01-23T09:11:06;26.75;;;15.63;;
45198;SDS011;30941;46.422;18.772;2023-01-23T09:13:32;22.48;;;14.05;;
45198;SDS011;30941;46.422;18.772;2023-01-23T09:15:58;23.92;;;14.85;;
45198;SDS011;30941;46.422;18.772;2023-01-23T09:18:24;24.30;;;14.45;;
45198;SDS011;30941;46.422;18.772;2023-01-23T09:20:50;29.77;;;17.25;;
45198;SDS011;30941;46.422;18.772;2023-01-23T09:23:16;35.35;;;19.55;;
45198;SDS011;30941;46.422;18.772;2023-01-23T09:25:41;29.20;;;17.52;;
45198;SDS011;30941;46.422;18.772;2023-01-23T09:28:07;28.40;;;14.93;;
45198;SDS011;30941;46.422;18.772;2023-01-23T09:30:32;30.35;;;16.88;;
45198;SDS011;30941;46.422;18.772;2023-01-23T09:32:57;30.23;;;16.70;;
45198;SDS011;30941;46.422;18.772;2023-01-23T09:35:23;28.58;;;18.17;;
45198;SDS011;30941;46.422;18.772;2023-01-23T09:37:49;28.65;;;17.75;;
45198;SDS011;30941;46.422;18.772;2023-01-23T09:43:11;27.08;;;15.80;;
45198;SDS011;30941;46.422;18.772;2023-01-23T09:45:38;23.98;;;14.40;;
45198;SDS011;30941;46.422;18.772;2023-01-23T09:48:11;30.17;;;16.48;;
45198;SDS011;30941;46.422;18.772;2023-01-23T09:50:46;30.30;;;16.67;;
45198;SDS011;30941;46.422;18.772;2023-01-23T09:53:18;27.15;;;14.98;;
45198;SDS011;30941;46.422;18.772;2023-01-23T09:55:52;25.20;;;15.23;;
45198;SDS011;30941;46.422;18.772;2023-01-23T09:58:23;29.35;;;16.02;;
45198;SDS011;30941;46.422;18.772;2023-01-23T10:00:52;22.50;;;14.45;;
45198;SDS011;30941;46.422;18.772;2023-01-23T10:03:17;28.92;;;16.80;;
45198;SDS011;30941;46.422;18.772;2023-01-23T10:08:33;27.05;;;14.98;;
45198;SDS011;30941;46.422;18.772;2023-01-23T10:11:02;31.70;;;17.08;;
45198;SDS011;30941;46.422;18.772;2023-01-23T10:24:20;23.75;;;13.93;;
45198;SDS011;30941;46.422;18.772;2023-01-23T10:27:21;24.70;;;13.38;;
45198;SDS011;30941;46.422;18.772;2023-01-23T10:29:50;31.30;;;16.10;;
45198;SDS011;30941;46.422;18.772;2023-01-23T10:32:30;27.08;;;15.38;;
45198;SDS011;30941;46.422;18.772;2023-01-23T10:35:02;21.67;;;14.13;;
45198;SDS011;30941;46.422;18.772;2023-01-23T10:40:17;20.80;;;13.70;;
45198;SDS011;30941;46.422;18.772;2023-01-23T10:43:08;23.20;;;13.82;;
45198;SDS011;30941;46.422;18.772;2023-01-23T10:45:36;21.63;;;13.50;;
45198;SDS011;30941;46.422;18.772;2023-01-23T10:48:02;22.17;;;12.77;;
45198;SDS011;30941;46.422;18.772;2023-01-23T10:50:57;21.90;;;13.30;;
45198;SDS011;30941;46.422;18.772;2023-01-23T10:53:25;22.70;;;13.90;;
45198;SDS011;30941;46.422;18.772;2023-01-23T10:55:52;22.05;;;13.95;;
45198;SDS011;30941;46.422;18.772;2023-01-23T10:58:40;22.58;;;14.70;;
45198;SDS011;30941;46.422;18.772;2023-01-23T11:01:16;21.10;;;13.48;;
45198;SDS011;30941;46.422;18.772;2023-01-23T11:04:16;23.88;;;14.30;;
45198;SDS011;30941;46.422;18.772;2023-01-23T11:06:44;20.85;;;13.25;;
45198;SDS011;30941;46.422;18.772;2023-01-23T11:09:25;21.23;;;12.63;;
45198;SDS011;30941;46.422;18.772;2023-01-23T11:12:03;19.25;;;12.07;;
45198;SDS011;30941;46.422;18.772;2023-01-23T11:14:29;22.52;;;13.13;;
45198;SDS011;30941;46.422;18.772;2023-01-23T11:16:59;22.63;;;13.90;;
45198;SDS011;30941;46.422;18.772;2023-01-23T11:19:29;24.33;;;15.00;;
45198;SDS011;30941;46.422;18.772;2023-01-23T11:22:00;19.35;;;13.73;;
45198;SDS011;30941;46.422;18.772;2023-01-23T11:24:31;24.20;;;15.40;;
45198;SDS011;30941;46.422;18.772;2023-01-23T11:27:05;24.08;;;13.90;;
45198;SDS011;30941;46.422;18.772;2023-01-23T11:29:51;25.92;;;15.73;;
45198;SDS011;30941;46.422;18.772;2023-01-23T11:32:54;24.33;;;14.45;;
45198;SDS011;30941;46.422;18.772;2023-01-23T11:38:07;22.20;;;13.48;;
45198;SDS011;30941;46.422;18.772;2023-01-23T11:40:34;18.60;;;12.40;;
45198;SDS011;30941;46.422;18.772;2023-01-23T11:43:00;18.20;;;11.82;;
45198;SDS011;30941;46.422;18.772;2023-01-23T11:50:49;23.30;;;15.05;;
45198;SDS011;30941;46.422;18.772;2023-01-23T11:56:19;26.23;;;15.43;;
45198;SDS011;30941;46.422;18.772;2023-01-23T12:01:26;21.17;;;15.45;;
45198;SDS011;30941;46.422;18.772;2023-01-23T12:04:04;21.38;;;14.25;;
45198;SDS011;30941;46.422;18.772;2023-01-23T12:09:22;23.20;;;13.63;;
45198;SDS011;30941;46.422;18.772;2023-01-23T12:17:11;23.20;;;13.75;;
45198;SDS011;30941;46.422;18.772;2023-01-23T12:20:04;20.38;;;13.35;;
45198;SDS011;30941;46.422;18.772;2023-01-23T12:25:41;25.92;;;16.15;;
45198;SDS011;30941;46.422;18.772;2023-01-23T12:28:19;27.83;;;17.48;;
45198;SDS011;30941;46.422;18.772;2023-01-23T12:39:25;21.20;;;14.18;;
45198;SDS011;30941;46.422;18.772;2023-01-23T12:42:02;26.15;;;15.68;;
45198;SDS011;30941;46.422;18.772;2023-01-23T12:44:34;26.13;;;13.65;;
45198;SDS011;30941;46.422;18.772;2023-01-23T12:49:42;24.58;;;14.50;;
45198;SDS011;30941;46.422;18.772;2023-01-23T12:52:15;22.02;;;13.82;;
45198;SDS011;30941;46.422;18.772;2023-01-23T13:05:42;20.25;;;13.75;;
45198;SDS011;30941;46.422;18.772;2023-01-23T13:11:06;25.17;;;17.25;;
45198;SDS011;30941;46.422;18.772;2023-01-23T13:13:51;23.90;;;14.15;;
45198;SDS011;30941;46.422;18.772;2023-01-23T13:16:17;26.05;;;14.82;;
45198;SDS011;30941;46.422;18.772;2023-01-23T13:18:56;20.27;;;12.90;;
45198;SDS011;30941;46.422;18.772;2023-01-23T13:30:02;27.55;;;17.00;;
45198;SDS011;30941;46.422;18.772;2023-01-23T13:32:38;28.17;;;18.27;;
45198;SDS011;30941;46.422;18.772;2023-01-23T13:35:09;27.67;;;18.60;;
45198;SDS011;30941;46.422;18.772;2023-01-23T13:48:53;32.25;;;19.73;;
45198;SDS011;30941;46.422;18.772;2023-01-23T13:51:59;31.13;;;18.60;;
45198;SDS011;30941;46.422;18.772;2023-01-23T13:54:47;42.00;;;24.92;;
45198;SDS011;30941;46.422;18.772;2023-01-23T13:57:31;62.20;;;32.05;;
45198;SDS011;30941;46.422;18.772;2023-01-23T13:59:57;59.50;;;32.92;;
45198;SDS011;30941;46.422;18.772;2023-01-23T14:05:20;39.92;;;25.20;;
45198;SDS011;30941;46.422;18.772;2023-01-23T14:07:58;37.78;;;22.25;;
45198;SDS011;30941;46.422;18.772;2023-01-23T14:10:26;30.98;;;18.10;;
45198;SDS011;30941;46.422;18.772;2023-01-23T14:15:34;28.23;;;19.05;;
45198;SDS011;30941;46.422;18.772;2023-01-23T14:18:23;34.90;;;21.10;;
45198;SDS011;30941;46.422;18.772;2023-01-23T14:20:52;36.95;;;22.50;;
45198;SDS011;30941;46.422;18.772;2023-01-23T14:23:28;43.55;;;29.38;;
45198;SDS011;30941;46.422;18.772;2023-01-23T14:25:57;44.50;;;26.55;;
45198;SDS011;30941;46.422;18.772;2023-01-23T14:28:22;37.63;;;24.15;;
45198;SDS011;30941;46.422;18.772;2023-01-23T14:30:51;33.15;;;19.85;;
45198;SDS011;30941;46.422;18.772;2023-01-23T14:33:21;33.28;;;21.13;;
45198;SDS011;30941;46.422;18.772;2023-01-23T14:35:46;65.32;;;30.88;;
45198;SDS011;30941;46.422;18.772;2023-01-23T14:38:15;79.32;;;34.45;;
45198;SDS011;30941;46.422;18.772;2023-01-23T14:40:44;58.78;;;29.08;;
45198;SDS011;30941;46.422;18.772;2023-01-23T14:43:16;54.88;;;29.15;;
45198;SDS011;30941;46.422;18.772;2023-01-23T14:45:46;43.25;;;24.83;;
45198;SDS011;30941;46.422;18.772;2023-01-23T14:48:13;42.72;;;25.05;;
45198;SDS011;30941;46.422;18.772;2023-01-23T14:50:40;38.65;;;24.23;;
45198;SDS011;30941;46.422;18.772;2023-01-23T14:53:06;47.40;;;26.00;;
45198;SDS011;30941;46.422;18.772;2023-01-23T14:55:38;50.20;;;28.92;;
45198;SDS011;30941;46.422;18.772;2023-01-23T14:58:05;44.28;;;25.90;;
45198;SDS011;30941;46.422;18.772;2023-01-23T15:00:31;46.33;;;25.58;;
45198;SDS011;30941;46.422;18.772;2023-01-23T15:02:58;41.45;;;26.05;;
45198;SDS011;30941;46.422;18.772;2023-01-23T15:05:24;44.67;;;26.65;;
45198;SDS011;30941;46.422;18.772;2023-01-23T15:07:57;48.33;;;27.70;;
45198;SDS011;30941;46.422;18.772;2023-01-23T15:13:11;50.13;;;29.45;;
45198;SDS011;30941;46.422;18.772;2023-01-23T15:15:38;59.35;;;36.40;;
45198;SDS011;30941;46.422;18.772;2023-01-23T15:18:22;61.15;;;34.30;;
45198;SDS011;30941;46.422;18.772;2023-01-23T15:20:53;45.53;;;27.85;;
45198;SDS011;30941;46.422;18.772;2023-01-23T15:23:25;34.92;;;23.17;;
45198;SDS011;30941;46.422;18.772;2023-01-23T15:33:55;50.53;;;26.20;;
45198;SDS011;30941;46.422;18.772;2023-01-23T15:36:23;39.50;;;26.88;;
45198;SDS011;30941;46.422;18.772;2023-01-23T15:38:51;48.83;;;30.02;;
45198;SDS011;30941;46.422;18.772;2023-01-23T15:41:17;38.75;;;25.48;;
45198;SDS011;30941;46.422;18.772;2023-01-23T15:43:42;31.35;;;20.45;;
45198;SDS011;30941;46.422;18.772;2023-01-23T15:46:10;28.25;;;17.85;;
45198;SDS011;30941;46.422;18.772;2023-01-23T15:48:36;29.98;;;20.05;;
45198;SDS011;30941;46.422;18.772;2023-01-23T15:51:03;32.35;;;19.90;;
45198;SDS011;30941;46.422;18.772;2023-01-23T15:53:28;29.70;;;19.27;;
45198;SDS011;30941;46.422;18.772;2023-01-23T15:55:54;25.88;;;17.73;;
45198;SDS011;30941;46.422;18.772;2023-01-23T15:58:20;30.42;;;18.13;;
45198;SDS011;30941;46.422;18.772;2023-01-23T16:00:45;34.30;;;21.05;;
45198;SDS011;30941;46.422;18.772;2023-01-23T16:03:10;26.17;;;18.25;;
45198;SDS011;30941;46.422;18.772;2023-01-23T16:05:39;28.90;;;19.38;;
45198;SDS011;30941;46.422;18.772;2023-01-23T16:08:04;30.17;;;18.27;;
45198;SDS011;30941;46.422;18.772;2023-01-23T16:10:42;27.77;;;20.08;;